createdAt,value
2022-10-03T00:01:32.623Z,11.60
2022-10-03T00:04:21.532Z,11.57
2022-10-03T00:07:02.548Z,11.55
2022-10-03T00:09:54.279Z,11.55
2022-10-03T00:12:47.120Z,11.58
2022-10-03T00:15:21.932Z,11.53
2022-10-03T00:18:02.119Z,11.58
2022-10-03T00:20:49.648Z,11.62
2022-10-03T00:23:26.902Z,11.63
2022-10-03T00:26:26.545Z,11.63
2022-10-03T00:29:03.322Z,11.58
2022-10-03T00:31:43.450Z,11.60
2022-10-03T00:34:26.379Z,11.72
2022-10-03T00:37:10.753Z,11.77
2022-10-03T00:39:48.733Z,11.83
2022-10-03T00:43:02.218Z,11.89
2022-10-03T00:46:06.592Z,11.86
2022-10-03T00:49:05.890Z,11.82
2022-10-03T00:51:48.244Z,11.76
2022-10-03T00:54:45.742Z,11.67
2022-10-03T00:57:38.657Z,11.53
2022-10-03T01:00:17.557Z,11.61
2022-10-03T01:03:01.911Z,11.62
2022-10-03T01:05:37.756Z,11.67
2022-10-03T01:08:31.487Z,11.69
2022-10-03T01:11:11.273Z,11.67
2022-10-03T01:13:52.369Z,11.64
2022-10-03T01:16:27.534Z,11.57
2022-10-03T01:19:08.246Z,11.65
2022-10-03T01:21:48.762Z,11.71
2022-10-03T01:24:45.123Z,11.70
2022-10-03T01:27:19.695Z,11.66
2022-10-03T01:30:12.158Z,11.64
2022-10-03T01:32:48.859Z,11.61
2022-10-03T01:35:25.551Z,11.62
2022-10-03T01:38:06.309Z,11.62
2022-10-03T01:40:40.378Z,11.55
2022-10-03T01:43:22.039Z,11.49
2022-10-03T01:46:04.699Z,11.53
2022-10-03T01:48:41.499Z,11.46
2022-10-03T01:51:16.621Z,11.49
2022-10-03T01:54:02.800Z,11.46
2022-10-03T01:56:36.935Z,11.48
2022-10-03T01:59:14.365Z,11.48
2022-10-03T02:01:51.178Z,11.53
2022-10-03T02:04:30.204Z,11.53
2022-10-03T02:07:09.010Z,11.56
2022-10-03T02:09:50.287Z,11.53
2022-10-03T02:12:29.029Z,11.45
2022-10-03T02:15:02.827Z,11.40
2022-10-03T02:17:47.771Z,11.44
2022-10-03T02:20:26.238Z,11.48
2022-10-03T02:22:55.869Z,11.52
2022-10-03T02:25:28.216Z,11.45
2022-10-03T02:28:34.993Z,11.41
2022-10-03T02:31:32.560Z,11.44
2022-10-03T02:34:32.898Z,11.49
2022-10-03T02:37:46.563Z,11.52
2022-10-03T02:40:44.411Z,11.52
2022-10-03T02:43:32.853Z,11.54
2022-10-03T02:46:50.800Z,11.44
2022-10-03T02:49:50.941Z,11.42
2022-10-03T02:52:55.431Z,11.34
2022-10-03T02:55:58.899Z,11.25
2022-10-03T02:58:49.019Z,11.19
2022-10-03T03:01:50.945Z,11.19
2022-10-03T03:04:49.519Z,11.24
2022-10-03T03:07:38.504Z,11.21
2022-10-03T03:10:38.776Z,11.18
2022-10-03T03:13:35.601Z,11.14
2022-10-03T03:16:34.299Z,11.05
2022-10-03T03:19:16.933Z,10.94
2022-10-03T03:21:54.762Z,10.98
2022-10-03T03:24:37.820Z,11.03
2022-10-03T03:27:34.033Z,11.05
2022-10-03T03:30:09.057Z,11.13
2022-10-03T03:33:03.210Z,11.12
2022-10-03T03:35:46.625Z,11.16
2022-10-03T03:38:31.097Z,11.19
2022-10-03T03:41:14.264Z,11.20
2022-10-03T03:44:03.176Z,11.21
2022-10-03T03:46:44.606Z,11.10
2022-10-03T03:49:31.943Z,11.10
2022-10-03T03:52:14.500Z,11.15
2022-10-03T03:55:15.025Z,11.22
2022-10-03T03:58:01.800Z,11.14
2022-10-03T04:00:46.171Z,11.17
2022-10-03T04:03:27.355Z,11.17
2022-10-03T04:06:10.964Z,11.16
2022-10-03T04:09:01.203Z,11.13
2022-10-03T04:11:39.108Z,11.08
2022-10-03T04:14:40.998Z,11.10
2022-10-03T04:17:49.393Z,11.16
2022-10-03T04:20:37.081Z,11.11
2022-10-03T04:23:22.888Z,11.12
2022-10-03T04:26:12.282Z,11.15
2022-10-03T04:28:56.207Z,11.22
2022-10-03T04:31:41.726Z,11.23
2022-10-03T04:34:20.310Z,11.27
2022-10-03T04:37:16.332Z,11.25
2022-10-03T04:39:54.313Z,11.25
2022-10-03T04:42:43.694Z,11.26
2022-10-03T04:45:29.632Z,11.26
2022-10-03T04:48:06.187Z,11.27
2022-10-03T04:50:41.917Z,11.30
2022-10-03T04:53:22.724Z,11.29
2022-10-03T04:55:55.236Z,11.21
2022-10-03T04:58:31.355Z,11.14
2022-10-03T05:01:15.018Z,11.20
2022-10-03T05:03:59.745Z,11.24
2022-10-03T05:06:38.761Z,11.26
2022-10-03T05:09:22.896Z,11.25
2022-10-03T05:12:00.572Z,11.19
2022-10-03T05:14:50.645Z,11.14
2022-10-03T05:17:26.707Z,11.09
2022-10-03T05:20:07.025Z,11.09
2022-10-03T05:22:45.851Z,11.12
2022-10-03T05:25:24.027Z,11.11
2022-10-03T05:28:02.623Z,11.14
2022-10-03T05:30:41.954Z,11.13
2022-10-03T05:33:21.010Z,11.17
2022-10-03T05:36:01.865Z,11.16
2022-10-03T05:39:00.133Z,11.07
2022-10-03T05:41:31.641Z,11.11
2022-10-03T05:44:06.007Z,11.13
2022-10-03T05:46:47.175Z,11.08
2022-10-03T05:49:50.675Z,11.04
2022-10-03T05:52:34.493Z,11.07
2022-10-03T05:55:28.256Z,11.03
2022-10-03T05:58:18.248Z,11.12
2022-10-03T06:01:09.951Z,11.15
2022-10-03T06:04:05.079Z,11.14
2022-10-03T06:06:49.078Z,11.18
2022-10-03T06:09:43.876Z,11.25
2022-10-03T06:12:14.244Z,11.20
2022-10-03T06:15:08.330Z,11.12
2022-10-03T06:17:56.923Z,11.19
2022-10-03T06:20:54.658Z,11.16
2022-10-03T06:23:45.013Z,11.22
2022-10-03T06:26:36.202Z,11.25
2022-10-03T06:29:36.889Z,11.20
2022-10-03T06:32:28.381Z,11.25
2022-10-03T06:35:33.677Z,11.27
2022-10-03T06:38:34.775Z,11.28
2022-10-03T06:41:39.881Z,11.29
2022-10-03T06:44:32.899Z,11.33
2022-10-03T06:47:38.006Z,11.36
2022-10-03T06:50:37.439Z,11.40
2022-10-03T06:53:30.836Z,11.49
2022-10-03T06:56:49.757Z,11.53
2022-10-03T06:59:53.074Z,11.66
2022-10-03T07:02:48.273Z,11.72
2022-10-03T07:05:49.607Z,11.60
2022-10-03T07:08:36.160Z,11.62
2022-10-03T07:11:28.579Z,11.79
2022-10-03T07:14:36.961Z,11.96
2022-10-03T07:17:24.826Z,11.93
2022-10-03T07:20:20.036Z,11.99
2022-10-03T07:23:13.138Z,12.00
2022-10-03T07:26:14.317Z,11.94
2022-10-03T07:29:09.669Z,12.13
2022-10-03T07:31:50.253Z,12.22
2022-10-03T07:34:51.145Z,12.32
2022-10-03T07:37:47.950Z,12.38
2022-10-03T07:40:44.117Z,12.46
2022-10-03T07:43:37.062Z,12.47
2022-10-03T07:46:41.487Z,12.58
2022-10-03T07:49:37.375Z,12.73
2022-10-03T07:52:31.150Z,12.73
2022-10-03T07:55:21.002Z,12.83
2022-10-03T07:58:13.034Z,12.92
2022-10-03T08:00:58.091Z,12.93
2022-10-03T08:03:57.453Z,13.07
2022-10-03T08:06:37.950Z,13.15
2022-10-03T08:09:21.496Z,13.28
2022-10-03T08:12:06.060Z,13.40
2022-10-03T08:14:46.692Z,13.48
2022-10-03T08:17:55.753Z,13.55
2022-10-03T08:20:38.145Z,13.68
2022-10-03T08:23:25.525Z,13.72
2022-10-03T08:26:04.821Z,13.83
2022-10-03T08:28:51.631Z,13.85
2022-10-03T08:31:39.958Z,13.93
2022-10-03T08:34:38.105Z,13.99
2022-10-03T08:37:35.814Z,14.05
2022-10-03T08:40:57.365Z,14.02
2022-10-03T08:43:57.967Z,14.07
2022-10-03T08:47:01.420Z,14.07
2022-10-03T08:49:51.763Z,14.12
2022-10-03T08:52:36.293Z,14.15
2022-10-03T08:55:33.925Z,14.15
2022-10-03T09:02:25.198Z,14.30
2022-10-03T09:05:14.995Z,14.41
2022-10-03T09:08:08.986Z,14.52
2022-10-03T09:10:51.093Z,14.64
2022-10-03T09:14:00.697Z,14.75
2022-10-03T09:17:00.031Z,14.69
2022-10-03T09:20:07.640Z,14.69
2022-10-03T09:22:59.672Z,14.63
2022-10-03T09:26:06.763Z,14.70
2022-10-03T09:28:57.242Z,14.62
2022-10-03T09:31:58.398Z,14.56
2022-10-03T09:35:06.988Z,14.54
2022-10-03T09:37:54.332Z,14.50
2022-10-03T09:41:21.111Z,14.53
2022-10-03T09:44:16.499Z,14.65
2022-10-03T09:47:23.344Z,14.65
2022-10-03T09:50:36.401Z,14.64
2022-10-03T09:53:40.632Z,14.65
2022-10-03T09:56:39.772Z,14.72
2022-10-03T09:59:37.121Z,14.79
2022-10-03T10:02:39.300Z,14.91
2022-10-03T10:05:37.342Z,14.94
2022-10-03T10:08:30.432Z,14.97
2022-10-03T10:11:25.452Z,15.03
2022-10-03T10:14:19.354Z,15.04
2022-10-03T10:17:33.393Z,15.05
2022-10-03T10:20:26.083Z,15.04
2022-10-03T10:23:14.778Z,15.07
2022-10-03T10:26:31.553Z,15.25
2022-10-03T10:29:43.807Z,15.19
2022-10-03T10:32:57.516Z,15.37
2022-10-03T10:35:52.718Z,15.43
2022-10-03T10:38:28.580Z,15.31
2022-10-03T10:41:29.101Z,15.26
2022-10-03T10:44:45.652Z,15.30
2022-10-03T10:47:53.945Z,15.33
2022-10-03T10:50:53.575Z,15.35
2022-10-03T10:54:09.228Z,15.40
2022-10-03T10:57:02.950Z,15.54
2022-10-03T11:00:05.238Z,15.45
2022-10-03T11:03:23.367Z,15.56
2022-10-03T11:06:44.992Z,15.70
2022-10-03T11:09:43.052Z,15.63
2022-10-03T11:12:53.677Z,15.42
2022-10-03T11:16:04.105Z,15.38
2022-10-03T11:19:14.586Z,15.44
2022-10-03T11:22:21.631Z,15.45
2022-10-03T11:25:25.333Z,15.45
2022-10-03T11:28:18.845Z,15.49
2022-10-03T11:31:19.830Z,15.48
2022-10-03T11:34:23.813Z,15.46
2022-10-03T11:37:06.928Z,15.37
2022-10-03T11:39:44.655Z,15.32
2022-10-03T11:42:22.918Z,15.33
2022-10-03T11:44:57.490Z,15.32
2022-10-03T11:47:47.199Z,15.37
2022-10-03T11:50:46.469Z,15.41
2022-10-03T11:53:26.883Z,15.50
2022-10-03T11:56:09.487Z,15.54
2022-10-03T11:58:53.892Z,15.57
2022-10-03T12:01:49.664Z,15.55
2022-10-03T12:04:27.846Z,15.60
2022-10-03T12:07:19.175Z,15.63
2022-10-03T12:09:59.692Z,15.68
2022-10-03T12:12:35.904Z,15.74
2022-10-03T12:15:28.029Z,15.75
2022-10-03T12:18:04.449Z,15.73
2022-10-03T12:20:42.370Z,15.75
2022-10-03T12:23:29.595Z,15.77
2022-10-03T12:25:58.515Z,15.82
2022-10-03T12:28:35.155Z,15.86
2022-10-03T12:31:14.894Z,15.87
2022-10-03T12:33:52.402Z,15.90
2022-10-03T12:36:28.573Z,15.87
2022-10-03T12:39:06.927Z,15.86
2022-10-03T12:42:19.727Z,15.93
2022-10-03T12:44:56.218Z,15.95
2022-10-03T12:47:56.361Z,15.88
2022-10-03T12:50:38.784Z,15.86
2022-10-03T12:53:25.120Z,15.92
2022-10-03T12:56:16.618Z,15.94
2022-10-03T12:59:08.734Z,15.96
2022-10-03T13:01:57.714Z,15.99
2022-10-03T13:04:39.742Z,15.98
2022-10-03T13:07:26.506Z,15.99
2022-10-03T13:10:10.992Z,16.08
2022-10-03T13:12:45.907Z,16.10
2022-10-03T13:16:13.613Z,16.05
2022-10-03T13:18:48.808Z,15.97
2022-10-03T13:21:44.573Z,15.90
2022-10-03T13:24:22.164Z,15.90
2022-10-03T13:26:56.749Z,16.27
2022-10-03T13:29:33.527Z,16.51
2022-10-03T13:32:17.909Z,16.75
2022-10-03T13:35:28.909Z,16.91
2022-10-03T13:38:16.494Z,17.12
2022-10-03T13:40:49.510Z,17.28
2022-10-03T13:43:22.290Z,17.19
2022-10-03T13:45:56.685Z,17.14
2022-10-03T13:48:27.887Z,17.10
2022-10-03T13:51:02.602Z,16.98
2022-10-03T13:53:59.771Z,16.95
2022-10-03T13:56:42.466Z,16.93
2022-10-03T13:59:20.338Z,16.86
2022-10-03T14:01:59.457Z,16.77
2022-10-03T14:04:48.892Z,16.56
2022-10-03T14:07:25.735Z,16.56
2022-10-03T14:10:37.544Z,16.45
2022-10-03T14:13:21.070Z,16.42
2022-10-03T14:15:53.008Z,16.40
2022-10-03T14:18:37.707Z,16.37
2022-10-03T14:21:32.160Z,16.36
2022-10-03T14:24:12.035Z,16.31
2022-10-03T14:26:48.555Z,16.26
2022-10-03T14:29:28.004Z,16.19
2022-10-03T14:32:02.177Z,16.15
2022-10-03T14:34:45.273Z,16.15
2022-10-03T14:37:23.509Z,16.26
2022-10-03T14:40:04.935Z,16.30
2022-10-03T14:42:53.572Z,16.35
2022-10-03T14:45:29.254Z,16.37
2022-10-03T14:48:03.614Z,16.39
2022-10-03T14:50:32.604Z,16.44
2022-10-03T14:53:06.104Z,16.40
2022-10-03T14:55:39.135Z,16.35
2022-10-03T14:58:18.621Z,16.29
2022-10-03T15:00:48.725Z,16.22
2022-10-03T15:03:43.057Z,16.20
2022-10-03T15:06:34.116Z,16.18
2022-10-03T15:09:05.382Z,16.12
2022-10-03T15:11:36.326Z,16.08
2022-10-03T15:14:09.753Z,16.07
2022-10-03T15:16:45.682Z,16.08
2022-10-03T15:19:18.551Z,16.04
2022-10-03T15:21:48.043Z,16.03
2022-10-03T15:24:25.095Z,15.99
2022-10-03T15:26:59.449Z,15.90
2022-10-03T15:29:30.154Z,15.91
2022-10-03T15:31:58.999Z,15.94
2022-10-03T15:34:32.260Z,15.95
2022-10-03T15:37:04.231Z,15.94
2022-10-03T15:39:36.285Z,15.90
2022-10-03T15:42:22.823Z,15.90
2022-10-03T15:44:54.577Z,15.90
2022-10-03T15:47:25.740Z,15.93
2022-10-03T15:49:57.002Z,15.94
2022-10-03T15:52:32.663Z,15.92
2022-10-03T15:55:12.013Z,15.83
2022-10-03T15:57:45.772Z,15.85
2022-10-03T16:00:24.429Z,15.86
2022-10-03T16:03:01.258Z,15.81
2022-10-03T16:05:30.726Z,15.79
2022-10-03T16:08:05.101Z,15.79
2022-10-03T16:10:38.706Z,15.76
2022-10-03T16:13:26.593Z,15.71
2022-10-03T16:16:09.682Z,15.69
2022-10-03T16:19:22.530Z,15.68
2022-10-03T16:21:56.718Z,15.59
2022-10-03T16:24:32.730Z,15.62
2022-10-03T16:27:08.798Z,15.61
2022-10-03T16:29:38.983Z,15.61
2022-10-03T16:32:16.522Z,15.56
2022-10-03T16:34:47.361Z,15.58
2022-10-03T16:37:21.553Z,15.51
2022-10-03T16:39:56.474Z,15.48
2022-10-03T16:42:29.111Z,15.41
2022-10-03T16:45:01.444Z,15.38
2022-10-03T16:47:36.450Z,15.43
2022-10-03T16:50:24.679Z,15.44
2022-10-03T16:52:55.274Z,15.39
2022-10-03T16:55:30.615Z,15.38
2022-10-03T16:58:02.049Z,15.38
2022-10-03T17:00:39.278Z,15.31
2022-10-03T17:03:18.642Z,15.30
2022-10-03T17:05:48.157Z,15.30
2022-10-03T17:08:40.681Z,15.32
2022-10-03T17:11:09.204Z,15.27
2022-10-03T17:13:44.391Z,15.17
2022-10-03T17:16:16.796Z,15.20
2022-10-03T17:19:02.262Z,15.21
2022-10-03T17:21:33.933Z,15.21
2022-10-03T17:24:08.415Z,15.18
2022-10-03T17:26:39.861Z,15.21
2022-10-03T17:29:15.327Z,15.22
2022-10-03T17:31:48.730Z,15.24
2022-10-03T17:34:21.931Z,15.20
2022-10-03T17:37:13.254Z,15.16
2022-10-03T17:39:50.635Z,15.09
2022-10-03T17:42:39.813Z,15.09
2022-10-03T17:45:18.980Z,15.06
2022-10-03T17:47:57.162Z,15.06
2022-10-03T17:50:31.703Z,15.01
2022-10-03T17:53:01.234Z,15.01
2022-10-03T17:55:32.569Z,14.95
2022-10-03T17:58:05.656Z,14.94
2022-10-03T18:00:40.444Z,14.90
2022-10-03T18:03:12.253Z,14.87
2022-10-03T18:05:45.908Z,14.88
2022-10-03T18:08:19.114Z,14.82
2022-10-03T18:10:50.391Z,14.79
2022-10-03T18:13:24.923Z,14.80
2022-10-03T18:16:19.981Z,14.72
2022-10-03T18:19:05.464Z,14.65
2022-10-03T18:21:47.407Z,14.65
2022-10-03T18:24:25.923Z,14.62
2022-10-03T18:27:04.889Z,14.58
2022-10-03T18:29:36.640Z,14.61
2022-10-03T18:32:13.620Z,14.57
2022-10-03T18:34:46.111Z,14.49
2022-10-03T18:37:54.127Z,14.49
2022-10-03T18:40:27.899Z,14.52
2022-10-03T18:42:56.059Z,14.56
2022-10-03T18:45:30.310Z,14.53
2022-10-03T18:48:05.855Z,14.51
2022-10-03T18:50:44.350Z,14.38
2022-10-03T18:53:20.562Z,14.34
2022-10-03T18:55:51.616Z,14.26
2022-10-03T18:58:25.099Z,14.31
2022-10-03T19:00:59.248Z,14.26
2022-10-03T19:03:35.250Z,14.31
2022-10-03T19:06:08.113Z,14.29
2022-10-03T19:08:42.182Z,14.31
2022-10-03T19:11:17.110Z,14.29
2022-10-03T19:13:53.812Z,14.23
2022-10-03T19:16:33.969Z,14.19
2022-10-03T19:19:12.289Z,14.22
2022-10-03T19:21:41.916Z,14.17
2022-10-03T19:24:17.540Z,14.08
2022-10-03T19:26:50.190Z,14.10
2022-10-03T19:29:23.558Z,14.15
2022-10-03T19:32:02.115Z,14.18
2022-10-03T19:34:36.068Z,14.19
2022-10-03T19:37:07.665Z,14.21
2022-10-03T19:39:39.345Z,14.18
2022-10-03T19:42:28.887Z,14.11
2022-10-03T19:44:57.997Z,14.10
2022-10-03T19:47:31.813Z,14.11
2022-10-03T19:50:09.950Z,14.12
2022-10-03T19:52:41.497Z,14.05
2022-10-03T19:55:15.878Z,14.00
2022-10-03T19:57:48.672Z,14.01
2022-10-03T20:00:26.050Z,14.09
2022-10-03T20:02:56.431Z,14.07
2022-10-03T20:05:32.690Z,14.00
2022-10-03T20:08:08.104Z,13.99
2022-10-03T20:10:48.599Z,14.01
2022-10-03T20:13:16.834Z,13.91
2022-10-03T20:15:47.873Z,13.94
2022-10-03T20:18:22.437Z,13.91
2022-10-03T20:20:53.902Z,13.93
2022-10-03T20:23:24.669Z,13.89
2022-10-03T20:26:00.113Z,13.88
2022-10-03T20:28:42.195Z,13.89
2022-10-03T20:31:10.274Z,13.84
2022-10-03T20:33:38.167Z,13.85
2022-10-03T20:36:13.752Z,13.87
2022-10-03T20:38:55.724Z,13.77
2022-10-03T20:41:37.216Z,13.96
2022-10-03T20:44:15.913Z,14.07
2022-10-03T20:46:47.870Z,14.13
2022-10-03T20:49:30.869Z,14.15
2022-10-03T20:52:01.609Z,14.16
2022-10-03T20:54:36.421Z,14.23
2022-10-03T20:57:15.048Z,14.21
2022-10-03T20:59:47.058Z,14.04
2022-10-03T21:02:25.215Z,13.99
2022-10-03T21:04:57.483Z,13.96
2022-10-03T21:07:33.342Z,13.89
2022-10-03T21:10:10.142Z,13.87
2022-10-03T21:12:45.369Z,13.85
2022-10-03T21:15:21.708Z,13.80
2022-10-03T21:17:50.878Z,13.79
2022-10-03T21:20:23.454Z,13.79
2022-10-03T21:22:53.625Z,13.72
2022-10-03T21:25:26.811Z,13.71
2022-10-03T21:27:57.912Z,13.57
2022-10-03T21:30:53.963Z,13.60
2022-10-03T21:33:30.314Z,13.63
2022-10-03T21:36:08.768Z,13.63
2022-10-03T21:38:43.054Z,13.65
2022-10-03T21:41:25.088Z,13.69
2022-10-03T21:43:56.690Z,13.71
2022-10-03T21:46:33.699Z,13.69
2022-10-03T21:49:23.367Z,13.68
2022-10-03T21:52:16.141Z,13.67
2022-10-03T21:54:54.983Z,13.68
2022-10-03T21:57:32.206Z,13.62
2022-10-03T22:00:12.157Z,13.61
2022-10-03T22:02:49.294Z,13.63
2022-10-03T22:05:27.369Z,13.63
2022-10-03T22:07:55.039Z,13.61
2022-10-03T22:10:25.865Z,13.60
2022-10-03T22:12:57.447Z,13.41
2022-10-03T22:15:35.440Z,13.37
2022-10-03T22:18:06.123Z,13.39
2022-10-03T22:20:35.374Z,13.46
2022-10-03T22:23:16.253Z,13.42
2022-10-03T22:26:08.819Z,13.41
2022-10-03T22:28:47.131Z,13.45
2022-10-03T22:31:24.787Z,13.47
2022-10-03T22:34:22.526Z,13.48
2022-10-03T22:36:50.768Z,13.50
2022-10-03T22:39:20.857Z,13.52
2022-10-03T22:41:53.995Z,13.50
2022-10-03T22:44:25.578Z,13.53
2022-10-03T22:46:58.218Z,13.53
2022-10-03T22:49:32.034Z,13.53
2022-10-03T22:52:03.408Z,13.49
2022-10-03T22:54:34.290Z,13.48
2022-10-03T22:57:06.867Z,13.48
2022-10-03T22:59:39.286Z,13.49
2022-10-03T23:02:10.490Z,13.47
2022-10-03T23:04:44.281Z,13.46
2022-10-03T23:07:28.861Z,13.41
2022-10-03T23:10:06.318Z,13.40
2022-10-03T23:12:39.514Z,13.32
2022-10-03T23:15:10.137Z,13.24
2022-10-03T23:18:21.133Z,13.26
2022-10-03T23:21:06.284Z,13.25
2022-10-03T23:23:43.097Z,13.24
2022-10-03T23:26:34.412Z,13.25
2022-10-03T23:29:05.980Z,13.25
2022-10-03T23:31:53.225Z,13.24
2022-10-03T23:34:48.993Z,13.22
2022-10-03T23:37:37.403Z,13.20
2022-10-03T23:40:39.986Z,13.20
2022-10-03T23:43:26.446Z,13.20
2022-10-03T23:45:59.291Z,13.15
2022-10-03T23:48:28.741Z,13.13
2022-10-03T23:51:00.973Z,13.12
2022-10-03T23:53:32.594Z,13.14
2022-10-03T23:56:02.965Z,13.13
2022-10-03T23:58:33.669Z,13.13
